sensor_id;sensor_type;location;lat;lon;timestamp;P1;durP1;ratioP1;P2;durP2;ratioP2
20711;SDS011;10517;50.742;4.224;2023-03-23T00:01:28;5.25;;;2.85;;
20711;SDS011;10517;50.742;4.224;2023-03-23T00:03:57;4.60;;;2.28;;
20711;SDS011;10517;50.742;4.224;2023-03-23T00:06:24;3.67;;;2.38;;
20711;SDS011;10517;50.742;4.224;2023-03-23T00:08:52;5.78;;;2.58;;
20711;SDS011;10517;50.742;4.224;2023-03-23T00:11:24;3.60;;;2.30;;
20711;SDS011;10517;50.742;4.224;2023-03-23T00:13:54;3.80;;;2.70;;
20711;SDS011;10517;50.742;4.224;2023-03-23T00:16:23;4.13;;;2.17;;
20711;SDS011;10517;50.742;4.224;2023-03-23T00:19:05;5.85;;;2.17;;
20711;SDS011;10517;50.742;4.224;2023-03-23T00:21:32;5.82;;;2.90;;
20711;SDS011;10517;50.742;4.224;2023-03-23T00:24:06;5.80;;;3.03;;
20711;SDS011;10517;50.742;4.224;2023-03-23T00:26:37;5.97;;;2.17;;
20711;SDS011;10517;50.742;4.224;2023-03-23T00:29:10;3.05;;;2.35;;
20711;SDS011;10517;50.742;4.224;2023-03-23T00:31:54;6.20;;;2.17;;
20711;SDS011;10517;50.742;4.224;2023-03-23T00:34:24;6.75;;;2.22;;
20711;SDS011;10517;50.742;4.224;2023-03-23T00:36:51;4.25;;;2.42;;
20711;SDS011;10517;50.742;4.224;2023-03-23T00:39:24;3.75;;;2.00;;
20711;SDS011;10517;50.742;4.224;2023-03-23T00:41:52;6.63;;;2.78;;
20711;SDS011;10517;50.742;4.224;2023-03-23T00:44:18;2.85;;;2.05;;
20711;SDS011;10517;50.742;4.224;2023-03-23T00:46:44;3.65;;;2.17;;
20711;SDS011;10517;50.742;4.224;2023-03-23T00:49:12;5.82;;;2.42;;
20711;SDS011;10517;50.742;4.224;2023-03-23T00:51:39;3.72;;;2.00;;
20711;SDS011;10517;50.742;4.224;2023-03-23T00:54:08;8.55;;;2.33;;
20711;SDS011;10517;50.742;4.224;2023-03-23T00:56:34;6.75;;;3.10;;
20711;SDS011;10517;50.742;4.224;2023-03-23T00:59:00;3.33;;;2.40;;
20711;SDS011;10517;50.742;4.224;2023-03-23T01:01:26;3.97;;;2.65;;
20711;SDS011;10517;50.742;4.224;2023-03-23T01:03:52;5.88;;;1.67;;
20711;SDS011;10517;50.742;4.224;2023-03-23T01:06:25;2.55;;;2.00;;
20711;SDS011;10517;50.742;4.224;2023-03-23T01:08:52;4.40;;;2.35;;
20711;SDS011;10517;50.742;4.224;2023-03-23T01:11:19;5.75;;;2.35;;
20711;SDS011;10517;50.742;4.224;2023-03-23T01:13:45;5.00;;;2.42;;
20711;SDS011;10517;50.742;4.224;2023-03-23T01:16:11;4.68;;;2.65;;
20711;SDS011;10517;50.742;4.224;2023-03-23T01:18:38;3.67;;;2.40;;
20711;SDS011;10517;50.742;4.224;2023-03-23T01:21:08;2.47;;;2.03;;
20711;SDS011;10517;50.742;4.224;2023-03-23T01:23:42;4.32;;;2.05;;
20711;SDS011;10517;50.742;4.224;2023-03-23T01:26:13;4.00;;;2.50;;
20711;SDS011;10517;50.742;4.224;2023-03-23T01:28:46;7.00;;;2.47;;
20711;SDS011;10517;50.742;4.224;2023-03-23T01:31:14;4.60;;;2.58;;
20711;SDS011;10517;50.742;4.224;2023-03-23T01:33:41;6.22;;;2.95;;
20711;SDS011;10517;50.742;4.224;2023-03-23T01:36:09;2.67;;;1.88;;
20711;SDS011;10517;50.742;4.224;2023-03-23T01:38:37;3.92;;;2.17;;
20711;SDS011;10517;50.742;4.224;2023-03-23T01:41:03;6.28;;;2.63;;
20711;SDS011;10517;50.742;4.224;2023-03-23T01:43:30;4.05;;;2.33;;
20711;SDS011;10517;50.742;4.224;2023-03-23T01:45:56;7.32;;;2.20;;
20711;SDS011;10517;50.742;4.224;2023-03-23T01:48:32;6.00;;;2.03;;
20711;SDS011;10517;50.742;4.224;2023-03-23T01:53:36;3.25;;;2.13;;
20711;SDS011;10517;50.742;4.224;2023-03-23T01:56:05;2.83;;;1.70;;
20711;SDS011;10517;50.742;4.224;2023-03-23T01:58:33;4.85;;;1.65;;
20711;SDS011;10517;50.742;4.224;2023-03-23T02:01:02;4.32;;;1.73;;
20711;SDS011;10517;50.742;4.224;2023-03-23T02:03:30;2.67;;;1.40;;
20711;SDS011;10517;50.742;4.224;2023-03-23T02:05:57;2.00;;;1.50;;
20711;SDS011;10517;50.742;4.224;2023-03-23T02:08:28;4.07;;;1.88;;
20711;SDS011;10517;50.742;4.224;2023-03-23T02:10:57;2.10;;;1.35;;
20711;SDS011;10517;50.742;4.224;2023-03-23T02:13:23;1.85;;;1.42;;
20711;SDS011;10517;50.742;4.224;2023-03-23T02:15:59;1.73;;;1.13;;
20711;SDS011;10517;50.742;4.224;2023-03-23T02:18:47;2.20;;;1.23;;
20711;SDS011;10517;50.742;4.224;2023-03-23T02:24:24;0.90;;;0.82;;
20711;SDS011;10517;50.742;4.224;2023-03-23T02:27:00;2.90;;;1.05;;
20711;SDS011;10517;50.742;4.224;2023-03-23T02:29:48;1.15;;;0.73;;
20711;SDS011;10517;50.742;4.224;2023-03-23T02:35:12;1.27;;;0.82;;
20711;SDS011;10517;50.742;4.224;2023-03-23T02:37:46;2.40;;;0.90;;
20711;SDS011;10517;50.742;4.224;2023-03-23T02:40:18;4.10;;;0.75;;
20711;SDS011;10517;50.742;4.224;2023-03-23T02:42:49;2.08;;;1.10;;
20711;SDS011;10517;50.742;4.224;2023-03-23T02:45:18;0.80;;;0.50;;
20711;SDS011;10517;50.742;4.224;2023-03-23T02:47:45;1.00;;;0.77;;
20711;SDS011;10517;50.742;4.224;2023-03-23T02:50:15;1.52;;;0.60;;
20711;SDS011;10517;50.742;4.224;2023-03-23T02:52:44;2.90;;;0.40;;
20711;SDS011;10517;50.742;4.224;2023-03-23T02:55:10;1.50;;;0.60;;
20711;SDS011;10517;50.742;4.224;2023-03-23T02:57:39;0.95;;;0.60;;
20711;SDS011;10517;50.742;4.224;2023-03-23T03:00:06;1.55;;;0.95;;
20711;SDS011;10517;50.742;4.224;2023-03-23T03:02:36;1.55;;;0.60;;
20711;SDS011;10517;50.742;4.224;2023-03-23T03:07:49;2.45;;;0.60;;
20711;SDS011;10517;50.742;4.224;2023-03-23T03:10:27;2.38;;;0.60;;
20711;SDS011;10517;50.742;4.224;2023-03-23T03:15:59;0.95;;;0.63;;
20711;SDS011;10517;50.742;4.224;2023-03-23T03:18:53;0.80;;;0.60;;
20711;SDS011;10517;50.742;4.224;2023-03-23T03:21:32;1.92;;;0.80;;
20711;SDS011;10517;50.742;4.224;2023-03-23T03:24:01;2.10;;;0.40;;
20711;SDS011;10517;50.742;4.224;2023-03-23T03:26:29;1.58;;;0.60;;
20711;SDS011;10517;50.742;4.224;2023-03-23T03:28:56;0.65;;;0.45;;
20711;SDS011;10517;50.742;4.224;2023-03-23T03:31:24;0.95;;;0.50;;
20711;SDS011;10517;50.742;4.224;2023-03-23T03:33:53;1.63;;;1.23;;
20711;SDS011;10517;50.742;4.224;2023-03-23T03:36:20;1.65;;;0.60;;
20711;SDS011;10517;50.742;4.224;2023-03-23T03:38:50;1.80;;;0.60;;
20711;SDS011;10517;50.742;4.224;2023-03-23T03:41:16;4.85;;;1.35;;
20711;SDS011;10517;50.742;4.224;2023-03-23T03:43:43;2.85;;;0.70;;
20711;SDS011;10517;50.742;4.224;2023-03-23T03:46:09;1.25;;;0.60;;
20711;SDS011;10517;50.742;4.224;2023-03-23T03:48:35;1.58;;;1.05;;
20711;SDS011;10517;50.742;4.224;2023-03-23T03:51:00;2.13;;;0.70;;
20711;SDS011;10517;50.742;4.224;2023-03-23T03:53:27;3.10;;;0.30;;
20711;SDS011;10517;50.742;4.224;2023-03-23T03:55:55;3.88;;;0.85;;
20711;SDS011;10517;50.742;4.224;2023-03-23T03:58:24;8.55;;;0.70;;
20711;SDS011;10517;50.742;4.224;2023-03-23T04:00:50;2.75;;;1.35;;
20711;SDS011;10517;50.742;4.224;2023-03-23T04:03:18;2.50;;;0.80;;
20711;SDS011;10517;50.742;4.224;2023-03-23T04:05:43;5.40;;;0.73;;
20711;SDS011;10517;50.742;4.224;2023-03-23T04:08:09;2.30;;;0.82;;
20711;SDS011;10517;50.742;4.224;2023-03-23T04:10:36;1.83;;;0.80;;
20711;SDS011;10517;50.742;4.224;2023-03-23T04:13:02;1.48;;;0.68;;
20711;SDS011;10517;50.742;4.224;2023-03-23T04:15:29;5.80;;;0.70;;
20711;SDS011;10517;50.742;4.224;2023-03-23T04:17:55;3.55;;;0.70;;
20711;SDS011;10517;50.742;4.224;2023-03-23T04:20:21;1.38;;;0.38;;
20711;SDS011;10517;50.742;4.224;2023-03-23T04:22:47;1.35;;;0.52;;
20711;SDS011;10517;50.742;4.224;2023-03-23T04:25:17;2.85;;;0.70;;
20711;SDS011;10517;50.742;4.224;2023-03-23T04:27:45;2.88;;;0.57;;
20711;SDS011;10517;50.742;4.224;2023-03-23T04:30:18;1.80;;;0.65;;
20711;SDS011;10517;50.742;4.224;2023-03-23T04:32:46;1.23;;;0.60;;
20711;SDS011;10517;50.742;4.224;2023-03-23T04:35:15;5.93;;;0.70;;
20711;SDS011;10517;50.742;4.224;2023-03-23T04:37:42;2.00;;;0.70;;
20711;SDS011;10517;50.742;4.224;2023-03-23T04:40:08;2.88;;;0.85;;
20711;SDS011;10517;50.742;4.224;2023-03-23T04:42:37;3.70;;;0.70;;
20711;SDS011;10517;50.742;4.224;2023-03-23T04:45:04;6.25;;;0.93;;
20711;SDS011;10517;50.742;4.224;2023-03-23T04:47:33;3.33;;;0.50;;
20711;SDS011;10517;50.742;4.224;2023-03-23T04:50:04;3.45;;;0.70;;
20711;SDS011;10517;50.742;4.224;2023-03-23T04:52:31;1.27;;;0.50;;
20711;SDS011;10517;50.742;4.224;2023-03-23T04:54:57;1.30;;;0.45;;
20711;SDS011;10517;50.742;4.224;2023-03-23T04:57:22;5.00;;;0.70;;
20711;SDS011;10517;50.742;4.224;2023-03-23T04:59:48;2.30;;;0.47;;
20711;SDS011;10517;50.742;4.224;2023-03-23T05:02:14;3.80;;;0.68;;
20711;SDS011;10517;50.742;4.224;2023-03-23T05:04:42;3.08;;;0.77;;
20711;SDS011;10517;50.742;4.224;2023-03-23T05:07:07;1.42;;;0.60;;
20711;SDS011;10517;50.742;4.224;2023-03-23T05:09:33;2.50;;;0.75;;
20711;SDS011;10517;50.742;4.224;2023-03-23T05:12:03;0.88;;;0.40;;
20711;SDS011;10517;50.742;4.224;2023-03-23T05:14:30;2.90;;;0.40;;
20711;SDS011;10517;50.742;4.224;2023-03-23T05:16:56;4.28;;;1.05;;
20711;SDS011;10517;50.742;4.224;2023-03-23T05:19:22;1.85;;;0.82;;
20711;SDS011;10517;50.742;4.224;2023-03-23T05:21:47;3.20;;;0.90;;
20711;SDS011;10517;50.742;4.224;2023-03-23T05:24:13;6.25;;;0.80;;
20711;SDS011;10517;50.742;4.224;2023-03-23T05:26:38;2.78;;;1.23;;
20711;SDS011;10517;50.742;4.224;2023-03-23T05:29:04;5.20;;;1.15;;
20711;SDS011;10517;50.742;4.224;2023-03-23T05:31:30;7.75;;;1.75;;
20711;SDS011;10517;50.742;4.224;2023-03-23T05:33:55;3.80;;;0.93;;
20711;SDS011;10517;50.742;4.224;2023-03-23T05:36:21;1.08;;;0.82;;
20711;SDS011;10517;50.742;4.224;2023-03-23T05:38:48;1.77;;;0.70;;
20711;SDS011;10517;50.742;4.224;2023-03-23T05:41:15;2.45;;;0.70;;
20711;SDS011;10517;50.742;4.224;2023-03-23T05:43:41;1.38;;;0.68;;
20711;SDS011;10517;50.742;4.224;2023-03-23T05:46:07;2.13;;;0.70;;
20711;SDS011;10517;50.742;4.224;2023-03-23T05:48:33;4.43;;;0.80;;
20711;SDS011;10517;50.742;4.224;2023-03-23T05:50:59;6.30;;;1.08;;
20711;SDS011;10517;50.742;4.224;2023-03-23T05:53:25;6.80;;;1.05;;
20711;SDS011;10517;50.742;4.224;2023-03-23T05:55:51;5.43;;;0.70;;
20711;SDS011;10517;50.742;4.224;2023-03-23T05:58:17;2.70;;;0.80;;
20711;SDS011;10517;50.742;4.224;2023-03-23T06:00:43;2.15;;;1.00;;
20711;SDS011;10517;50.742;4.224;2023-03-23T06:03:10;3.65;;;0.60;;
20711;SDS011;10517;50.742;4.224;2023-03-23T06:05:36;1.05;;;0.77;;
20711;SDS011;10517;50.742;4.224;2023-03-23T06:08:21;4.50;;;0.93;;
20711;SDS011;10517;50.742;4.224;2023-03-23T06:10:47;5.18;;;0.68;;
20711;SDS011;10517;50.742;4.224;2023-03-23T06:13:14;3.80;;;0.75;;
20711;SDS011;10517;50.742;4.224;2023-03-23T06:15:40;1.48;;;0.85;;
20711;SDS011;10517;50.742;4.224;2023-03-23T06:18:05;7.78;;;1.58;;
20711;SDS011;10517;50.742;4.224;2023-03-23T06:20:31;4.20;;;0.60;;
20711;SDS011;10517;50.742;4.224;2023-03-23T06:23:00;9.73;;;1.63;;
20711;SDS011;10517;50.742;4.224;2023-03-23T06:25:26;6.90;;;0.68;;
20711;SDS011;10517;50.742;4.224;2023-03-23T06:27:52;9.45;;;0.95;;
20711;SDS011;10517;50.742;4.224;2023-03-23T06:30:18;3.03;;;0.93;;
20711;SDS011;10517;50.742;4.224;2023-03-23T06:32:44;4.57;;;0.90;;
20711;SDS011;10517;50.742;4.224;2023-03-23T06:35:12;1.20;;;0.60;;
20711;SDS011;10517;50.742;4.224;2023-03-23T06:37:38;2.05;;;1.13;;
20711;SDS011;10517;50.742;4.224;2023-03-23T06:40:04;1.83;;;0.85;;
20711;SDS011;10517;50.742;4.224;2023-03-23T06:42:35;5.10;;;1.05;;
20711;SDS011;10517;50.742;4.224;2023-03-23T06:45:02;1.13;;;1.00;;
20711;SDS011;10517;50.742;4.224;2023-03-23T06:47:29;3.55;;;1.17;;
20711;SDS011;10517;50.742;4.224;2023-03-23T06:49:55;2.33;;;0.73;;
20711;SDS011;10517;50.742;4.224;2023-03-23T06:52:21;3.28;;;1.20;;
20711;SDS011;10517;50.742;4.224;2023-03-23T06:54:48;1.38;;;0.70;;
20711;SDS011;10517;50.742;4.224;2023-03-23T06:57:14;3.38;;;0.98;;
20711;SDS011;10517;50.742;4.224;2023-03-23T06:59:40;4.47;;;1.60;;
20711;SDS011;10517;50.742;4.224;2023-03-23T07:02:08;6.10;;;0.90;;
20711;SDS011;10517;50.742;4.224;2023-03-23T07:04:36;9.27;;;1.70;;
20711;SDS011;10517;50.742;4.224;2023-03-23T07:07:02;1.48;;;0.75;;
20711;SDS011;10517;50.742;4.224;2023-03-23T07:09:28;9.48;;;1.27;;
20711;SDS011;10517;50.742;4.224;2023-03-23T07:11:53;0.82;;;0.75;;
20711;SDS011;10517;50.742;4.224;2023-03-23T07:14:19;3.30;;;1.35;;
20711;SDS011;10517;50.742;4.224;2023-03-23T07:16:46;5.82;;;0.85;;
20711;SDS011;10517;50.742;4.224;2023-03-23T07:19:12;5.13;;;0.68;;
20711;SDS011;10517;50.742;4.224;2023-03-23T07:21:38;3.03;;;0.80;;
20711;SDS011;10517;50.742;4.224;2023-03-23T07:24:03;2.22;;;0.80;;
20711;SDS011;10517;50.742;4.224;2023-03-23T07:26:29;3.33;;;1.10;;
20711;SDS011;10517;50.742;4.224;2023-03-23T07:28:55;6.75;;;0.90;;
20711;SDS011;10517;50.742;4.224;2023-03-23T07:31:20;1.30;;;0.75;;
20711;SDS011;10517;50.742;4.224;2023-03-23T07:33:47;2.42;;;0.73;;
20711;SDS011;10517;50.742;4.224;2023-03-23T07:36:12;1.50;;;0.70;;
20711;SDS011;10517;50.742;4.224;2023-03-23T07:38:38;1.50;;;0.65;;
20711;SDS011;10517;50.742;4.224;2023-03-23T07:41:04;2.58;;;0.95;;
20711;SDS011;10517;50.742;4.224;2023-03-23T07:43:30;4.40;;;0.70;;
20711;SDS011;10517;50.742;4.224;2023-03-23T07:45:56;5.60;;;0.73;;
20711;SDS011;10517;50.742;4.224;2023-03-23T07:48:22;3.20;;;0.50;;
20711;SDS011;10517;50.742;4.224;2023-03-23T07:50:48;6.47;;;0.70;;
20711;SDS011;10517;50.742;4.224;2023-03-23T07:53:13;3.17;;;0.50;;
20711;SDS011;10517;50.742;4.224;2023-03-23T07:55:39;0.80;;;0.40;;
20711;SDS011;10517;50.742;4.224;2023-03-23T07:58:05;0.98;;;0.60;;
20711;SDS011;10517;50.742;4.224;2023-03-23T08:00:31;2.10;;;0.35;;
20711;SDS011;10517;50.742;4.224;2023-03-23T08:02:57;0.50;;;0.30;;
20711;SDS011;10517;50.742;4.224;2023-03-23T08:05:24;1.45;;;0.57;;
20711;SDS011;10517;50.742;4.224;2023-03-23T08:07:51;0.82;;;0.40;;
20711;SDS011;10517;50.742;4.224;2023-03-23T08:10:19;0.70;;;0.50;;
20711;SDS011;10517;50.742;4.224;2023-03-23T08:12:53;0.98;;;0.40;;
20711;SDS011;10517;50.742;4.224;2023-03-23T08:15:20;5.78;;;0.60;;
20711;SDS011;10517;50.742;4.224;2023-03-23T08:17:47;0.88;;;0.40;;
20711;SDS011;10517;50.742;4.224;2023-03-23T08:20:13;1.70;;;0.52;;
20711;SDS011;10517;50.742;4.224;2023-03-23T08:22:42;2.80;;;0.70;;
20711;SDS011;10517;50.742;4.224;2023-03-23T08:25:10;0.35;;;0.30;;
20711;SDS011;10517;50.742;4.224;2023-03-23T08:27:37;0.73;;;0.52;;
20711;SDS011;10517;50.742;4.224;2023-03-23T08:30:08;2.42;;;0.40;;
20711;SDS011;10517;50.742;4.224;2023-03-23T08:32:36;2.38;;;0.70;;
20711;SDS011;10517;50.742;4.224;2023-03-23T08:35:01;1.83;;;0.60;;
20711;SDS011;10517;50.742;4.224;2023-03-23T08:37:28;1.48;;;0.40;;
20711;SDS011;10517;50.742;4.224;2023-03-23T08:39:54;2.83;;;0.50;;
20711;SDS011;10517;50.742;4.224;2023-03-23T08:42:22;1.50;;;0.77;;
20711;SDS011;10517;50.742;4.224;2023-03-23T08:44:49;1.17;;;0.55;;
20711;SDS011;10517;50.742;4.224;2023-03-23T08:47:15;0.60;;;0.32;;
20711;SDS011;10517;50.742;4.224;2023-03-23T08:49:41;0.93;;;0.57;;
20711;SDS011;10517;50.742;4.224;2023-03-23T08:52:07;2.72;;;0.40;;
20711;SDS011;10517;50.742;4.224;2023-03-23T08:54:34;1.35;;;0.70;;
20711;SDS011;10517;50.742;4.224;2023-03-23T08:57:01;0.93;;;0.70;;
20711;SDS011;10517;50.742;4.224;2023-03-23T08:59:27;1.05;;;0.45;;
20711;SDS011;10517;50.742;4.224;2023-03-23T09:01:53;1.00;;;0.50;;
20711;SDS011;10517;50.742;4.224;2023-03-23T09:04:19;2.50;;;0.50;;
20711;SDS011;10517;50.742;4.224;2023-03-23T09:06:46;3.58;;;0.57;;
20711;SDS011;10517;50.742;4.224;2023-03-23T09:09:12;1.30;;;0.63;;
20711;SDS011;10517;50.742;4.224;2023-03-23T09:11:38;0.68;;;0.50;;
20711;SDS011;10517;50.742;4.224;2023-03-23T09:14:04;3.20;;;0.90;;
20711;SDS011;10517;50.742;4.224;2023-03-23T09:16:31;1.80;;;0.50;;
20711;SDS011;10517;50.742;4.224;2023-03-23T09:18:58;4.13;;;0.60;;
20711;SDS011;10517;50.742;4.224;2023-03-23T09:21:24;3.28;;;0.60;;
20711;SDS011;10517;50.742;4.224;2023-03-23T09:23:51;0.80;;;0.47;;
20711;SDS011;10517;50.742;4.224;2023-03-23T09:26:17;1.58;;;0.60;;
20711;SDS011;10517;50.742;4.224;2023-03-23T09:28:43;5.93;;;0.77;;
20711;SDS011;10517;50.742;4.224;2023-03-23T09:31:10;2.00;;;0.63;;
20711;SDS011;10517;50.742;4.224;2023-03-23T09:33:37;3.13;;;0.95;;
20711;SDS011;10517;50.742;4.224;2023-03-23T09:36:03;2.92;;;0.60;;
20711;SDS011;10517;50.742;4.224;2023-03-23T09:38:30;2.88;;;0.63;;
20711;SDS011;10517;50.742;4.224;2023-03-23T09:46:46;4.00;;;0.93;;
20711;SDS011;10517;50.742;4.224;2023-03-23T09:49:17;3.35;;;0.70;;
20711;SDS011;10517;50.742;4.224;2023-03-23T09:51:50;1.02;;;0.73;;
20711;SDS011;10517;50.742;4.224;2023-03-23T09:54:41;4.25;;;1.13;;
20711;SDS011;10517;50.742;4.224;2023-03-23T10:00:13;4.40;;;1.50;;
20711;SDS011;10517;50.742;4.224;2023-03-23T10:02:46;2.25;;;1.10;;
20711;SDS011;10517;50.742;4.224;2023-03-23T10:07:43;1.27;;;0.80;;
20711;SDS011;10517;50.742;4.224;2023-03-23T10:10:11;6.88;;;1.05;;
20711;SDS011;10517;50.742;4.224;2023-03-23T10:15:29;1.27;;;0.80;;
20711;SDS011;10517;50.742;4.224;2023-03-23T10:18:08;0.95;;;0.57;;
20711;SDS011;10517;50.742;4.224;2023-03-23T10:20:55;4.72;;;0.90;;
20711;SDS011;10517;50.742;4.224;2023-03-23T10:26:32;2.63;;;1.05;;
20711;SDS011;10517;50.742;4.224;2023-03-23T10:29:13;6.93;;;1.10;;
20711;SDS011;10517;50.742;4.224;2023-03-23T10:31:56;2.10;;;0.70;;
20711;SDS011;10517;50.742;4.224;2023-03-23T10:34:30;1.60;;;0.98;;
20711;SDS011;10517;50.742;4.224;2023-03-23T10:37:13;3.60;;;1.08;;
20711;SDS011;10517;50.742;4.224;2023-03-23T10:39:51;6.57;;;0.93;;
20711;SDS011;10517;50.742;4.224;2023-03-23T10:42:23;2.42;;;0.98;;
20711;SDS011;10517;50.742;4.224;2023-03-23T10:44:53;5.20;;;2.20;;
20711;SDS011;10517;50.742;4.224;2023-03-23T10:47:21;1.17;;;0.80;;
20711;SDS011;10517;50.742;4.224;2023-03-23T10:57:43;4.15;;;1.20;;
20711;SDS011;10517;50.742;4.224;2023-03-23T11:02:41;5.70;;;1.15;;
20711;SDS011;10517;50.742;4.224;2023-03-23T11:05:18;6.38;;;1.23;;
20711;SDS011;10517;50.742;4.224;2023-03-23T11:07:48;4.55;;;1.17;;
20711;SDS011;10517;50.742;4.224;2023-03-23T11:10:40;3.28;;;0.70;;
20711;SDS011;10517;50.742;4.224;2023-03-23T11:13:09;6.60;;;1.17;;
20711;SDS011;10517;50.742;4.224;2023-03-23T11:15:39;4.15;;;1.02;;
20711;SDS011;10517;50.742;4.224;2023-03-23T11:18:09;4.65;;;1.23;;
20711;SDS011;10517;50.742;4.224;2023-03-23T11:20:39;2.03;;;0.73;;
20711;SDS011;10517;50.742;4.224;2023-03-23T11:25:53;4.50;;;0.93;;
20711;SDS011;10517;50.742;4.224;2023-03-23T11:28:34;2.38;;;0.80;;
20711;SDS011;10517;50.742;4.224;2023-03-23T11:31:03;7.22;;;0.90;;
20711;SDS011;10517;50.742;4.224;2023-03-23T11:36:42;1.55;;;0.65;;
20711;SDS011;10517;50.742;4.224;2023-03-23T11:39:28;4.78;;;0.88;;
20711;SDS011;10517;50.742;4.224;2023-03-23T11:42:11;1.55;;;0.60;;
20711;SDS011;10517;50.742;4.224;2023-03-23T11:44:43;5.45;;;1.23;;
20711;SDS011;10517;50.742;4.224;2023-03-23T11:50:10;1.80;;;0.65;;
20711;SDS011;10517;50.742;4.224;2023-03-23T11:55:19;3.85;;;1.00;;
20711;SDS011;10517;50.742;4.224;2023-03-23T11:57:49;3.65;;;0.63;;
20711;SDS011;10517;50.742;4.224;2023-03-23T12:00:18;2.50;;;0.98;;
20711;SDS011;10517;50.742;4.224;2023-03-23T12:05:39;5.03;;;0.80;;
20711;SDS011;10517;50.742;4.224;2023-03-23T12:08:15;3.60;;;0.80;;
20711;SDS011;10517;50.742;4.224;2023-03-23T12:11:21;5.50;;;1.27;;
20711;SDS011;10517;50.742;4.224;2023-03-23T12:28:05;3.83;;;1.00;;
20711;SDS011;10517;50.742;4.224;2023-03-23T12:30:43;8.00;;;1.30;;
20711;SDS011;10517;50.742;4.224;2023-03-23T12:36:31;4.43;;;1.75;;
20711;SDS011;10517;50.742;4.224;2023-03-23T12:44:52;2.50;;;0.70;;
20711;SDS011;10517;50.742;4.224;2023-03-23T12:47:30;4.10;;;0.98;;
20711;SDS011;10517;50.742;4.224;2023-03-23T12:52:46;7.30;;;1.10;;
20711;SDS011;10517;50.742;4.224;2023-03-23T12:55:42;3.25;;;1.42;;
20711;SDS011;10517;50.742;4.224;2023-03-23T12:58:21;7.10;;;1.55;;
20711;SDS011;10517;50.742;4.224;2023-03-23T13:06:04;4.97;;;1.45;;
20711;SDS011;10517;50.742;4.224;2023-03-23T13:11:38;7.20;;;1.35;;
20711;SDS011;10517;50.742;4.224;2023-03-23T13:17:15;2.50;;;0.60;;
20711;SDS011;10517;50.742;4.224;2023-03-23T13:20:38;3.08;;;1.00;;
20711;SDS011;10517;50.742;4.224;2023-03-23T13:26:09;4.53;;;1.23;;
20711;SDS011;10517;50.742;4.224;2023-03-23T13:31:22;3.78;;;1.30;;
20711;SDS011;10517;50.742;4.224;2023-03-23T13:34:02;2.67;;;1.35;;
20711;SDS011;10517;50.742;4.224;2023-03-23T13:36:51;4.25;;;1.00;;
20711;SDS011;10517;50.742;4.224;2023-03-23T13:39:23;6.20;;;1.05;;
20711;SDS011;10517;50.742;4.224;2023-03-23T13:42:03;3.85;;;1.02;;
20711;SDS011;10517;50.742;4.224;2023-03-23T13:53:14;6.30;;;1.30;;
20711;SDS011;10517;50.742;4.224;2023-03-23T14:02:59;5.97;;;1.08;;
20711;SDS011;10517;50.742;4.224;2023-03-23T14:08:02;3.58;;;1.20;;
20711;SDS011;10517;50.742;4.224;2023-03-23T14:11:44;3.38;;;1.27;;
20711;SDS011;10517;50.742;4.224;2023-03-23T14:14:43;2.92;;;0.80;;
20711;SDS011;10517;50.742;4.224;2023-03-23T14:16:48;6.18;;;1.35;;
20711;SDS011;10517;50.742;4.224;2023-03-23T14:21:59;5.55;;;1.20;;
20711;SDS011;10517;50.742;4.224;2023-03-23T14:24:33;5.43;;;1.02;;
20711;SDS011;10517;50.742;4.224;2023-03-23T14:29:41;2.72;;;0.70;;
20711;SDS011;10517;50.742;4.224;2023-03-23T14:32:07;1.50;;;0.63;;
20711;SDS011;10517;50.742;4.224;2023-03-23T14:34:39;1.55;;;0.85;;
20711;SDS011;10517;50.742;4.224;2023-03-23T14:37:05;8.18;;;0.90;;
20711;SDS011;10517;50.742;4.224;2023-03-23T14:39:37;1.98;;;0.75;;
20711;SDS011;10517;50.742;4.224;2023-03-23T14:42:09;7.15;;;0.95;;
20711;SDS011;10517;50.742;4.224;2023-03-23T14:44:41;6.03;;;0.90;;
20711;SDS011;10517;50.742;4.224;2023-03-23T14:47:13;8.75;;;0.93;;
20711;SDS011;10517;50.742;4.224;2023-03-23T14:49:52;2.90;;;0.80;;
20711;SDS011;10517;50.742;4.224;2023-03-23T14:52:21;5.53;;;1.60;;
20711;SDS011;10517;50.742;4.224;2023-03-23T14:54:48;7.53;;;0.95;;
20711;SDS011;10517;50.742;4.224;2023-03-23T14:57:16;5.10;;;1.00;;
20711;SDS011;10517;50.742;4.224;2023-03-23T14:59:44;7.13;;;1.05;;
20711;SDS011;10517;50.742;4.224;2023-03-23T15:02:15;6.95;;;1.48;;
20711;SDS011;10517;50.742;4.224;2023-03-23T15:04:45;9.48;;;2.22;;
20711;SDS011;10517;50.742;4.224;2023-03-23T15:07:14;10.10;;;2.35;;
20711;SDS011;10517;50.742;4.224;2023-03-23T15:09:43;12.50;;;2.83;;
20711;SDS011;10517;50.742;4.224;2023-03-23T15:12:21;10.60;;;5.05;;
20711;SDS011;10517;50.742;4.224;2023-03-23T15:14:51;20.55;;;6.75;;
20711;SDS011;10517;50.742;4.224;2023-03-23T15:17:20;14.80;;;4.20;;
20711;SDS011;10517;50.742;4.224;2023-03-23T15:19:50;6.25;;;2.08;;
20711;SDS011;10517;50.742;4.224;2023-03-23T15:27:39;5.80;;;1.30;;
20711;SDS011;10517;50.742;4.224;2023-03-23T15:32:47;3.40;;;1.40;;
20711;SDS011;10517;50.742;4.224;2023-03-23T15:35:17;5.97;;;1.02;;
20711;SDS011;10517;50.742;4.224;2023-03-23T15:40:26;3.83;;;1.27;;
20711;SDS011;10517;50.742;4.224;2023-03-23T15:49:08;4.95;;;1.13;;
20711;SDS011;10517;50.742;4.224;2023-03-23T15:51:36;6.65;;;0.93;;
20711;SDS011;10517;50.742;4.224;2023-03-23T15:54:02;6.95;;;1.15;;
20711;SDS011;10517;50.742;4.224;2023-03-23T15:56:28;9.98;;;1.02;;
20711;SDS011;10517;50.742;4.224;2023-03-23T15:58:56;2.55;;;1.05;;
20711;SDS011;10517;50.742;4.224;2023-03-23T16:01:26;1.70;;;0.77;;
20711;SDS011;10517;50.742;4.224;2023-03-23T16:03:54;3.17;;;1.38;;
20711;SDS011;10517;50.742;4.224;2023-03-23T16:06:23;5.85;;;1.00;;
20711;SDS011;10517;50.742;4.224;2023-03-23T16:08:50;5.43;;;1.20;;
20711;SDS011;10517;50.742;4.224;2023-03-23T16:11:17;4.55;;;1.38;;
20711;SDS011;10517;50.742;4.224;2023-03-23T16:13:43;5.50;;;1.85;;
20711;SDS011;10517;50.742;4.224;2023-03-23T16:16:13;8.85;;;1.40;;
20711;SDS011;10517;50.742;4.224;2023-03-23T16:18:45;4.82;;;1.88;;
20711;SDS011;10517;50.742;4.224;2023-03-23T16:21:10;8.98;;;1.65;;
20711;SDS011;10517;50.742;4.224;2023-03-23T16:23:36;7.78;;;2.30;;
20711;SDS011;10517;50.742;4.224;2023-03-23T16:26:02;8.07;;;2.58;;
20711;SDS011;10517;50.742;4.224;2023-03-23T16:28:27;8.32;;;3.00;;
20711;SDS011;10517;50.742;4.224;2023-03-23T16:30:53;11.82;;;3.80;;
20711;SDS011;10517;50.742;4.224;2023-03-23T16:33:19;10.05;;;3.78;;
20711;SDS011;10517;50.742;4.224;2023-03-23T16:35:44;4.22;;;2.30;;
20711;SDS011;10517;50.742;4.224;2023-03-23T16:38:12;8.30;;;2.00;;
20711;SDS011;10517;50.742;4.224;2023-03-23T16:40:40;2.22;;;1.00;;
20711;SDS011;10517;50.742;4.224;2023-03-23T16:43:07;10.05;;;1.63;;
20711;SDS011;10517;50.742;4.224;2023-03-23T16:45:32;4.30;;;1.00;;
20711;SDS011;10517;50.742;4.224;2023-03-23T16:47:58;6.70;;;1.35;;
20711;SDS011;10517;50.742;4.224;2023-03-23T16:50:25;8.52;;;1.30;;
20711;SDS011;10517;50.742;4.224;2023-03-23T16:52:53;5.32;;;1.25;;
20711;SDS011;10517;50.742;4.224;2023-03-23T16:55:20;5.35;;;1.60;;
20711;SDS011;10517;50.742;4.224;2023-03-23T16:57:45;5.25;;;1.52;;
20711;SDS011;10517;50.742;4.224;2023-03-23T17:00:15;9.48;;;1.45;;
20711;SDS011;10517;50.742;4.224;2023-03-23T17:02:46;8.93;;;1.10;;
20711;SDS011;10517;50.742;4.224;2023-03-23T17:05:14;9.63;;;1.85;;
20711;SDS011;10517;50.742;4.224;2023-03-23T17:07:41;6.45;;;1.58;;
20711;SDS011;10517;50.742;4.224;2023-03-23T17:10:08;3.85;;;1.55;;
20711;SDS011;10517;50.742;4.224;2023-03-23T17:12:34;4.68;;;1.48;;
20711;SDS011;10517;50.742;4.224;2023-03-23T17:15:00;3.60;;;1.13;;
20711;SDS011;10517;50.742;4.224;2023-03-23T17:17:27;4.78;;;1.10;;
20711;SDS011;10517;50.742;4.224;2023-03-23T17:19:52;5.10;;;1.58;;
20711;SDS011;10517;50.742;4.224;2023-03-23T17:22:18;6.22;;;1.30;;